Time;durP1;ratioP1;P1;durP2;ratioP2;P2;SDS_P1;SDS_P2;PMS_P1;PMS_P2;Temp;Humidity;BMP_temperature;BMP_pressure;BME280_temperature;BME280_humidity;BME280_pressure;Samples;Min_cycle;Max_cycle;Signal;HPM_P1;HPM_P2
2022/09/07 00:00:40;;;;;;;8.07;7.27;;;22.80;99.90;;;;;;5040137;28;20202;-94
2022/09/07 00:03:06;;;;;;;8.90;8.00;;;22.70;99.90;;;;;;5038654;28;20971;-91
2022/09/07 00:05:32;;;;;;;9.03;7.90;;;22.70;99.90;;;;;;5039563;28;20475;-96
2022/09/07 00:07:58;;;;;;;9.53;7.93;;;22.70;99.90;;;;;;5039506;28;20652;-95
2022/09/07 00:10:24;;;;;;;9.10;8.20;;;22.60;99.90;;;;;;5056610;28;20423;-89
2022/09/07 00:12:50;;;;;;;8.80;7.90;;;22.60;99.90;;;;;;5056371;28;20463;-95
2022/09/07 00:15:16;;;;;;;8.73;7.93;;;22.60;99.90;;;;;;5056402;28;20431;-96
2022/09/07 00:17:42;;;;;;;9.93;8.33;;;22.50;99.90;;;;;;5057700;28;20178;-96
2022/09/07 00:20:09;;;;;;;10.80;7.63;;;22.50;99.90;;;;;;5039837;28;20441;-91
2022/09/07 00:22:35;;;;;;;9.10;7.87;;;22.40;99.90;;;;;;5039597;28;20281;-96
2022/09/07 00:25:01;;;;;;;8.30;7.50;;;22.40;99.90;;;;;;5041652;28;20531;-90
2022/09/07 00:27:26;;;;;;;9.80;8.90;;;22.40;99.90;;;;;;5037205;28;20190;-95
2022/09/07 00:29:52;;;;;;;9.30;8.37;;;22.40;99.90;;;;;;5041949;28;20675;-90
2022/09/07 00:32:18;;;;;;;8.53;7.70;;;22.30;99.90;;;;;;5038245;28;20197;-96
2022/09/07 00:34:43;;;;;;;8.90;8.00;;;22.30;99.90;;;;;;5037483;28;20205;-96
2022/09/07 00:37:09;;;;;;;9.37;8.37;;;22.30;99.90;;;;;;5055697;28;20189;-94
2022/09/07 00:39:36;;;;;;;9.10;8.27;;;22.30;99.90;;;;;;5037169;28;20213;-90
2022/09/07 00:42:03;;;;;;;9.17;8.17;;;22.20;99.90;;;;;;5055091;28;20560;-94
2022/09/07 00:44:58;;;;;;;9.60;8.70;;;22.20;99.90;;;;;;5037336;28;20991;-90
2022/09/07 00:47:55;;;;;;;9.60;8.43;;;22.20;99.90;;;;;;5055482;28;20467;-95
2022/09/07 00:50:32;;;;;;;9.83;8.73;;;22.10;99.90;;;;;;5037680;28;20446;-95
2022/09/07 00:53:14;;;;;;;9.60;8.37;;;22.10;99.90;;;;;;5037933;28;20934;-90
2022/09/07 00:55:43;;;;;;;8.90;8.07;;;22.00;99.90;;;;;;5055380;28;20423;-90
2022/09/07 00:58:09;;;;;;;9.93;8.60;;;22.00;99.90;;;;;;5037790;28;20448;-95
2022/09/07 01:00:35;;;;;;;9.40;8.50;;;21.90;99.90;;;;;;5055317;28;20423;-95
2022/09/07 01:03:03;;;;;;;12.67;8.40;;;21.90;99.90;;;;;;5037814;28;20489;-90
2022/09/07 01:05:41;;;;;;;11.20;8.90;;;21.80;99.90;;;;;;5037273;28;20557;-95
2022/09/07 01:08:08;;;;;;;10.93;8.80;;;21.80;99.90;;;;;;5055559;28;20441;-90
2022/09/07 01:10:35;;;;;;;9.20;8.20;;;21.70;99.90;;;;;;5037475;28;20466;-91
2022/09/07 01:13:00;;;;;;;11.10;9.77;;;21.60;99.90;;;;;;5056999;28;20832;-93
2022/09/07 01:15:42;;;;;;;10.30;8.80;;;21.60;99.90;;;;;;5038928;28;20492;-90
2022/09/07 01:18:18;;;;;;;11.67;10.30;;;21.50;99.90;;;;;;5038851;28;20526;-90
2022/09/07 01:21:18;;;;;;;11.40;9.90;;;21.50;99.90;;;;;;5037660;28;20445;-90
2022/09/07 01:24:08;;;;;;;15.50;10.73;;;21.50;99.90;;;;;;5037767;28;20763;-90
2022/09/07 01:27:04;;;;;;;12.13;9.93;;;21.40;99.90;;;;;;5037007;28;20812;-90
2022/09/07 01:29:32;;;;;;;10.73;9.60;;;21.40;99.90;;;;;;5037182;28;21021;-95
2022/09/07 01:32:19;;;;;;;13.17;10.53;;;21.40;99.90;;;;;;5055056;28;20488;-91
2022/09/07 01:34:50;;;;;;;11.67;10.47;;;21.40;99.90;;;;;;5036941;28;20496;-90
2022/09/07 01:37:36;;;;;;;13.23;11.23;;;21.30;99.90;;;;;;5055028;28;20824;-91
2022/09/07 01:40:12;;;;;;;12.70;11.13;;;21.30;99.90;;;;;;5036915;28;20442;-95
2022/09/07 01:42:53;;;;;;;13.47;11.20;;;21.20;99.90;;;;;;5054695;28;20430;-95
2022/09/07 01:45:24;;;;;;;12.10;10.70;;;21.10;99.90;;;;;;5054347;28;20455;-95
2022/09/07 01:47:56;;;;;;;14.20;12.10;;;21.00;99.90;;;;;;5055617;28;20415;-90
2022/09/07 01:50:31;;;;;;;13.20;10.27;;;21.00;99.90;;;;;;5037564;28;20431;-90
2022/09/07 01:53:04;;;;;;;13.47;10.47;;;20.90;99.90;;;;;;5040014;28;20434;-96
2022/09/07 01:55:41;;;;;;;16.33;10.80;;;20.80;99.90;;;;;;5037975;28;20521;-96
2022/09/07 01:58:07;;;;;;;13.70;10.10;;;20.80;99.90;;;;;;5041385;28;20441;-96
2022/09/07 02:00:34;;;;;;;15.23;10.00;;;20.80;99.90;;;;;;5041033;28;20790;-94
2022/09/07 02:03:23;;;;;;;13.60;10.63;;;20.70;99.90;;;;;;5042113;28;20196;-95
2022/09/07 02:06:38;;;;;;;11.97;9.97;;;20.80;99.90;;;;;;5041968;28;20472;-95
2022/09/07 02:09:10;;;;;;;15.90;11.17;;;20.80;99.90;;;;;;4969508;28;20430;-96
2022/09/07 02:11:39;;;;;;;12.27;9.70;;;20.80;99.90;;;;;;5034272;28;20430;-90
2022/09/07 02:14:21;;;;;;;13.20;10.33;;;20.80;99.90;;;;;;5039304;28;20403;-95
2022/09/07 02:17:08;;;;;;;15.07;10.53;;;20.90;99.90;;;;;;5057267;28;20415;-90
2022/09/07 02:19:39;;;;;;;13.77;9.70;;;20.90;99.90;;;;;;5057605;28;20423;-91
2022/09/07 02:22:11;;;;;;;15.47;10.40;;;20.90;99.90;;;;;;5057579;28;20888;-96
2022/09/07 02:24:41;;;;;;;12.20;10.07;;;20.90;99.90;;;;;;5039447;28;20474;-95
2022/09/07 02:27:12;;;;;;;13.67;10.80;;;20.90;99.90;;;;;;5039402;28;20767;-90
2022/09/07 02:29:38;;;;;;;15.73;11.13;;;20.90;99.90;;;;;;5037318;28;20510;-95
2022/09/07 02:32:04;;;;;;;13.70;11.73;;;20.90;99.90;;;;;;5021654;28;20506;-96
2022/09/07 02:34:31;;;;;;;12.90;11.10;;;20.90;99.90;;;;;;5020820;28;20432;-90
2022/09/07 02:37:00;;;;;;;12.93;10.70;;;20.80;99.90;;;;;;5038017;28;20511;-95
2022/09/07 02:39:25;;;;;;;12.50;11.20;;;20.80;99.90;;;;;;5036716;28;20432;-90
2022/09/07 02:41:51;;;;;;;12.97;11.10;;;20.80;99.90;;;;;;5037552;28;20420;-91
2022/09/07 02:44:26;;;;;;;14.10;11.37;;;20.70;99.90;;;;;;5019817;28;20210;-95
2022/09/07 02:47:30;;;;;;;14.97;11.43;;;20.70;99.90;;;;;;5036457;28;20194;-90
2022/09/07 02:50:08;;;;;;;16.60;12.63;;;20.70;99.90;;;;;;5037681;28;20966;-90
2022/09/07 02:52:43;;;;;;;13.27;11.97;;;20.70;99.90;;;;;;5020179;28;20518;-90
2022/09/07 02:55:26;;;;;;;13.47;11.83;;;20.70;99.90;;;;;;5020595;28;20435;-95
2022/09/07 02:57:55;;;;;;;13.33;11.73;;;20.70;99.90;;;;;;5020441;28;20471;-91
2022/09/07 03:00:26;;;;;;;17.80;12.20;;;20.70;99.90;;;;;;5020263;28;20498;-95
2022/09/07 03:03:18;;;;;;;15.47;12.20;;;20.70;99.90;;;;;;5026843;28;20526;-94
2022/09/07 03:05:49;;;;;;;15.27;12.20;;;20.60;99.90;;;;;;5037775;28;20529;-94
2022/09/07 03:08:25;;;;;;;13.80;11.80;;;20.50;99.90;;;;;;5036777;28;20400;-96
2022/09/07 03:10:52;;;;;;;13.43;11.73;;;20.50;99.90;;;;;;5020459;28;20439;-90
2022/09/07 03:13:25;;;;;;;15.13;10.93;;;20.50;99.90;;;;;;5038585;28;20400;-95
2022/09/07 03:15:51;;;;;;;12.73;11.43;;;20.60;99.90;;;;;;5019859;28;20450;-95
2022/09/07 03:18:16;;;;;;;13.87;11.30;;;20.60;99.90;;;;;;5019771;28;20428;-95
2022/09/07 03:20:42;;;;;;;16.17;11.80;;;20.60;99.90;;;;;;5019536;28;20250;-94
2022/09/07 03:23:08;;;;;;;19.23;13.77;;;20.60;99.90;;;;;;5037863;28;20182;-91
2022/09/07 03:25:33;;;;;;;15.83;12.23;;;20.60;99.90;;;;;;5031559;28;20236;-90
2022/09/07 03:27:59;;;;;;;13.80;12.10;;;20.60;99.90;;;;;;5056196;28;20251;-94
2022/09/07 03:30:28;;;;;;;16.23;12.80;;;20.60;99.90;;;;;;5037526;28;20256;-91
2022/09/07 03:33:03;;;;;;;12.43;11.13;;;20.60;99.90;;;;;;5055993;28;20237;-91
2022/09/07 03:35:34;;;;;;;15.33;12.40;;;20.60;99.90;;;;;;5038954;28;20465;-96
2022/09/07 03:38:17;;;;;;;14.37;11.30;;;20.60;99.90;;;;;;5060419;28;20414;-91
2022/09/07 03:40:43;;;;;;;15.90;11.17;;;20.60;99.90;;;;;;5036892;28;20434;-91
2022/09/07 03:43:09;;;;;;;12.13;10.40;;;20.60;99.90;;;;;;5036976;28;20457;-91
2022/09/07 03:45:34;;;;;;;15.73;10.70;;;20.60;99.90;;;;;;5037273;28;20217;-95
2022/09/07 03:48:00;;;;;;;16.70;11.97;;;20.60;99.90;;;;;;5037577;28;20232;-90
2022/09/07 03:50:27;;;;;;;13.80;12.37;;;20.60;99.90;;;;;;5045251;28;20206;-91
2022/09/07 03:52:53;;;;;;;14.27;11.57;;;20.50;99.90;;;;;;5061997;28;20201;-95
2022/09/07 03:55:19;;;;;;;14.93;11.43;;;20.50;99.90;;;;;;5037504;28;20553;-96
2022/09/07 03:57:44;;;;;;;15.93;11.63;;;20.50;99.90;;;;;;5055077;28;20174;-96
2022/09/07 04:00:11;;;;;;;13.50;11.13;;;20.50;99.90;;;;;;5054827;28;20213;-90
2022/09/07 04:02:36;;;;;;;12.40;10.90;;;20.50;99.90;;;;;;5054686;28;20182;-90
2022/09/07 04:05:02;;;;;;;16.13;12.70;;;20.50;99.90;;;;;;5037240;28;20525;-96
2022/09/07 04:07:28;;;;;;;164.47;93.03;;;20.50;99.90;;;;;;5043286;28;20182;-95
2022/09/07 04:09:54;;;;;;;16.10;12.40;;;20.50;99.90;;;;;;5040262;28;20220;-95
2022/09/07 04:12:19;;;;;;;16.10;13.57;;;20.50;99.90;;;;;;5069387;28;20182;-93
2022/09/07 04:14:45;;;;;;;13.17;11.10;;;20.50;99.90;;;;;;5037357;28;20217;-90
2022/09/07 04:17:10;;;;;;;14.30;12.50;;;20.50;99.90;;;;;;5054963;28;20173;-90
2022/09/07 04:19:36;;;;;;;16.30;13.37;;;20.50;99.90;;;;;;5037805;28;20237;-94
2022/09/07 04:22:02;;;;;;;17.73;11.80;;;20.40;99.90;;;;;;5037067;28;20186;-94
2022/09/07 04:24:28;;;;;;;17.63;12.20;;;20.40;99.90;;;;;;5036772;28;20228;-96
2022/09/07 04:26:54;;;;;;;16.13;11.77;;;20.40;99.90;;;;;;5053197;28;20252;-95
2022/09/07 04:29:19;;;;;;;13.83;11.70;;;20.30;99.90;;;;;;5023452;28;20206;-90
2022/09/07 04:31:45;;;;;;;14.90;12.37;;;20.30;99.90;;;;;;5034059;28;20788;-95
2022/09/07 04:34:11;;;;;;;14.70;12.20;;;20.30;99.90;;;;;;5015443;28;20743;-96
2022/09/07 04:36:38;;;;;;;13.80;11.80;;;20.30;99.90;;;;;;5016182;28;20207;-95
2022/09/07 04:39:04;;;;;;;13.43;11.17;;;20.40;99.90;;;;;;5016511;28;20784;-95
2022/09/07 04:41:31;;;;;;;12.63;10.87;;;20.40;99.90;;;;;;5020475;28;20193;-93
2022/09/07 04:43:59;;;;;;;13.63;11.33;;;20.40;99.90;;;;;;5047738;28;20442;-93
2022/09/07 04:46:28;;;;;;;14.27;12.17;;;20.40;99.90;;;;;;5015854;28;20510;-90
2022/09/07 04:48:59;;;;;;;13.20;11.60;;;20.30;99.90;;;;;;5027738;28;20496;-96
2022/09/07 04:51:27;;;;;;;12.43;10.80;;;20.30;99.90;;;;;;5037364;28;20419;-96
2022/09/07 04:53:55;;;;;;;17.27;11.93;;;20.30;99.90;;;;;;5037438;28;20876;-95
2022/09/07 04:56:21;;;;;;;14.43;10.03;;;20.30;99.90;;;;;;5055407;28;20411;-90
2022/09/07 04:58:48;;;;;;;17.50;11.70;;;20.40;99.90;;;;;;5037107;28;20458;-95
2022/09/07 05:01:17;;;;;;;14.50;12.10;;;20.40;99.90;;;;;;5037323;28;20410;-94
2022/09/07 05:03:44;;;;;;;14.43;11.33;;;20.40;99.90;;;;;;5033210;28;20430;-94
2022/09/07 05:06:10;;;;;;;14.73;11.50;;;20.40;99.90;;;;;;5038989;28;20532;-90
2022/09/07 05:08:37;;;;;;;15.17;11.87;;;20.40;99.90;;;;;;5027195;28;20436;-91
2022/09/07 05:11:03;;;;;;;13.10;11.40;;;20.40;99.90;;;;;;5022439;28;20976;-92
2022/09/07 05:13:30;;;;;;;16.93;11.40;;;20.40;99.90;;;;;;5016750;28;20427;-90
2022/09/07 05:15:57;;;;;;;17.20;12.20;;;20.40;99.90;;;;;;5016232;28;20430;-90
2022/09/07 05:18:23;;;;;;;16.30;12.50;;;20.40;99.90;;;;;;5027663;28;20423;-95
2022/09/07 05:20:49;;;;;;;14.30;10.33;;;20.30;99.90;;;;;;5020624;28;20514;-90
2022/09/07 05:23:15;;;;;;;14.90;11.80;;;20.30;99.90;;;;;;5034617;28;20847;-95
2022/09/07 05:25:45;;;;;;;16.10;11.43;;;20.30;99.90;;;;;;5039004;28;20323;-91
2022/09/07 05:28:11;;;;;;;13.00;11.60;;;20.30;99.90;;;;;;5075397;28;20576;-90
2022/09/07 05:30:38;;;;;;;14.87;10.70;;;20.30;99.90;;;;;;5058688;28;20426;-96
2022/09/07 05:33:06;;;;;;;12.33;10.70;;;20.40;99.90;;;;;;5078946;28;20404;-90
2022/09/07 05:35:32;;;;;;;16.00;12.50;;;20.40;99.90;;;;;;5060176;28;20447;-94
2022/09/07 05:37:58;;;;;;;15.60;11.90;;;20.40;99.90;;;;;;5080370;28;20437;-90
2022/09/07 05:40:24;;;;;;;15.10;11.20;;;20.40;99.90;;;;;;5084208;28;20464;-91
2022/09/07 05:42:49;;;;;;;14.67;11.60;;;20.50;99.90;;;;;;5068948;28;20200;-93
2022/09/07 05:45:15;;;;;;;14.03;11.50;;;20.50;99.90;;;;;;5049511;28;20246;-95
2022/09/07 05:47:41;;;;;;;15.93;13.37;;;20.50;99.90;;;;;;5035083;28;20663;-93
2022/09/07 05:50:08;;;;;;;15.00;11.40;;;20.50;99.90;;;;;;5057358;28;20446;-91
2022/09/07 05:52:34;;;;;;;17.77;11.97;;;20.50;99.90;;;;;;5034531;28;20564;-91
2022/09/07 05:55:00;;;;;;;12.80;10.67;;;20.60;99.90;;;;;;5038780;28;20807;-90
2022/09/07 05:57:26;;;;;;;13.47;10.83;;;20.60;99.90;;;;;;5042214;28;20414;-90
2022/09/07 05:59:52;;;;;;;13.20;11.70;;;20.70;99.90;;;;;;5040396;28;20442;-93
2022/09/07 06:02:18;;;;;;;13.07;10.77;;;20.70;99.90;;;;;;5042341;28;20189;-94
2022/09/07 06:04:44;;;;;;;14.10;11.77;;;20.70;99.90;;;;;;5038883;28;20557;-90
2022/09/07 06:07:12;;;;;;;14.90;11.80;;;20.80;99.90;;;;;;5039166;28;20611;-90
2022/09/07 06:09:38;;;;;;;17.17;10.20;;;20.80;99.90;;;;;;5052815;28;20646;-91
2022/09/07 06:12:04;;;;;;;13.30;11.00;;;20.80;99.90;;;;;;5041631;28;20419;-93
2022/09/07 06:14:33;;;;;;;17.83;11.07;;;20.90;99.90;;;;;;5036901;28;20439;-95
2022/09/07 06:16:59;;;;;;;12.80;10.80;;;20.90;99.90;;;;;;5056198;28;20518;-95
2022/09/07 06:19:25;;;;;;;12.03;10.70;;;21.00;99.90;;;;;;5058997;28;20486;-89
2022/09/07 06:21:51;;;;;;;17.43;11.40;;;21.00;99.90;;;;;;5043010;28;20170;-96
2022/09/07 06:24:16;;;;;;;13.60;10.90;;;21.10;99.90;;;;;;5042470;28;20279;-95
2022/09/07 06:26:42;;;;;;;12.37;10.07;;;21.10;99.90;;;;;;5034753;28;20713;-94
2022/09/07 06:29:08;;;;;;;11.07;9.87;;;21.20;99.90;;;;;;5035217;28;20209;-91
2022/09/07 06:31:33;;;;;;;14.47;10.17;;;21.30;99.90;;;;;;5027866;28;20193;-91
2022/09/07 06:33:59;;;;;;;10.13;8.90;;;21.30;99.90;;;;;;5049997;28;20794;-91
2022/09/07 06:36:30;;;;;;;12.23;9.50;;;21.40;99.90;;;;;;5033350;28;20193;-92
2022/09/07 06:39:00;;;;;;;14.20;9.90;;;21.50;99.90;;;;;;5051278;28;20188;-91
2022/09/07 06:41:35;;;;;;;17.60;11.30;;;21.60;99.90;;;;;;5036684;28;20453;-92
2022/09/07 06:44:01;;;;;;;11.37;8.67;;;21.70;99.90;;;;;;5039414;28;20426;-95
2022/09/07 06:46:33;;;;;;;12.33;10.37;;;21.70;99.90;;;;;;5034612;28;20878;-91
2022/09/07 06:48:59;;;;;;;11.83;9.70;;;21.80;99.90;;;;;;5033510;28;20428;-95
2022/09/07 06:51:25;;;;;;;9.87;8.83;;;21.80;99.90;;;;;;5052436;28;20445;-93
2022/09/07 06:53:55;;;;;;;12.33;9.50;;;21.90;99.90;;;;;;5037036;28;20232;-93
2022/09/07 06:56:21;;;;;;;11.77;9.27;;;21.90;99.90;;;;;;5037566;28;20419;-94
2022/09/07 06:58:51;;;;;;;10.53;9.37;;;22.00;99.90;;;;;;5039115;28;20438;-89
2022/09/07 07:01:22;;;;;;;11.93;8.60;;;22.00;99.90;;;;;;5062077;28;20519;-94
2022/09/07 07:03:48;;;;;;;12.40;9.67;;;22.10;99.90;;;;;;5041669;28;20444;-93
2022/09/07 07:06:14;;;;;;;13.80;10.83;;;22.20;99.90;;;;;;5054532;28;20463;-94
2022/09/07 07:08:40;;;;;;;12.70;10.80;;;22.30;99.90;;;;;;5041418;28;20442;-89
2022/09/07 07:11:08;;;;;;;15.40;10.40;;;22.30;99.90;;;;;;5037777;28;20626;-89
2022/09/07 07:13:35;;;;;;;14.00;10.67;;;22.40;99.90;;;;;;5055971;28;20424;-89
2022/09/07 07:16:11;;;;;;;12.43;10.13;;;22.50;99.90;;;;;;5038221;28;20497;-89
2022/09/07 07:18:37;;;;;;;16.27;12.13;;;22.50;99.90;;;;;;5056045;28;20449;-94
2022/09/07 07:21:05;;;;;;;14.63;9.93;;;22.60;99.90;;;;;;5038343;28;20438;-95
2022/09/07 07:23:31;;;;;;;15.80;10.37;;;22.70;99.90;;;;;;5055652;28;20435;-95
2022/09/07 07:26:25;;;;;;;11.13;9.43;;;22.80;99.90;;;;;;5056156;28;20508;-94
2022/09/07 07:28:53;;;;;;;12.40;10.30;;;22.90;99.90;;;;;;5039957;28;20234;-89
2022/09/07 07:31:22;;;;;;;10.67;8.77;;;22.90;99.90;;;;;;5037758;28;20409;-95
2022/09/07 07:33:48;;;;;;;12.00;10.00;;;23.00;99.90;;;;;;5041055;28;20436;-94
2022/09/07 07:36:15;;;;;;;13.60;10.30;;;23.10;99.90;;;;;;5037012;28;20413;-89
2022/09/07 07:38:43;;;;;;;13.30;10.47;;;23.20;99.90;;;;;;5036904;28;20952;-93
2022/09/07 07:41:09;;;;;;;13.60;9.17;;;23.30;99.90;;;;;;5052756;28;20425;-89
2022/09/07 07:43:35;;;;;;;11.80;9.50;;;23.40;99.90;;;;;;5055037;28;20442;-93
2022/09/07 07:46:01;;;;;;;12.47;9.50;;;23.50;99.90;;;;;;5054655;28;20470;-89
2022/09/07 07:48:27;;;;;;;14.83;10.27;;;23.50;99.90;;;;;;5036417;28;20692;-94
2022/09/07 07:50:58;;;;;;;12.07;8.90;;;23.60;99.90;;;;;;5054356;28;20429;-93
2022/09/07 07:53:24;;;;;;;11.87;9.90;;;23.70;99.90;;;;;;5056908;28;20464;-89
2022/09/07 07:55:50;;;;;;;12.40;9.30;;;23.70;99.90;;;;;;5037672;28;20425;-89
2022/09/07 07:58:16;;;;;;;12.17;10.50;;;23.80;99.90;;;;;;5038904;28;20468;-92
2022/09/07 08:00:41;;;;;;;12.10;9.63;;;23.90;99.90;;;;;;5036983;28;20303;-93
2022/09/07 08:03:07;;;;;;;12.30;9.77;;;24.00;99.90;;;;;;5034364;28;20445;-92
2022/09/07 08:05:36;;;;;;;12.83;10.40;;;24.10;99.90;;;;;;5050272;28;20232;-94
2022/09/07 08:08:02;;;;;;;13.10;9.50;;;24.10;99.90;;;;;;5032454;28;20274;-94
2022/09/07 08:10:29;;;;;;;13.80;9.93;;;24.20;99.90;;;;;;5050464;28;20911;-94
2022/09/07 08:12:55;;;;;;;9.50;8.50;;;24.30;99.90;;;;;;5033731;28;20425;-95
2022/09/07 08:15:21;;;;;;;10.57;9.47;;;24.40;99.90;;;;;;5033689;28;20444;-94
2022/09/07 08:17:47;;;;;;;10.50;8.87;;;24.50;99.90;;;;;;5034163;28;20508;-90
2022/09/07 08:20:13;;;;;;;9.93;8.93;;;24.60;99.90;;;;;;5033210;28;20276;-94
2022/09/07 08:22:39;;;;;;;10.23;8.87;;;24.70;99.90;;;;;;5034302;28;20422;-95
2022/09/07 08:25:06;;;;;;;14.53;8.90;;;24.80;99.90;;;;;;5025204;28;21028;-88
2022/09/07 08:27:32;;;;;;;10.07;8.53;;;24.90;99.90;;;;;;5032893;28;20203;-93
2022/09/07 08:29:59;;;;;;;11.37;8.83;;;25.00;99.90;;;;;;5044736;28;20449;-93
2022/09/07 08:32:25;;;;;;;10.57;8.27;;;25.10;99.90;;;;;;5031789;28;20442;-94
2022/09/07 08:34:51;;;;;;;10.30;9.23;;;25.30;99.90;;;;;;5031327;28;20518;-89
2022/09/07 08:37:16;;;;;;;10.20;8.57;;;25.70;99.90;;;;;;5037685;28;20458;-94
2022/09/07 08:39:42;;;;;;;10.60;9.40;;;26.50;99.90;;;;;;5033282;28;20233;-94
2022/09/07 08:42:40;;;;;;;10.43;8.50;;;27.30;99.90;;;;;;5057210;28;20173;-92
2022/09/07 08:45:13;;;;;;;9.13;8.13;;;28.20;99.90;;;;;;5034143;28;20236;-95
2022/09/07 08:47:47;;;;;;;10.80;8.53;;;28.70;99.90;;;;;;5053687;28;21005;-89
2022/09/07 08:50:20;;;;;;;9.20;8.30;;;28.80;99.90;;;;;;5045911;28;21233;-89
2022/09/07 08:52:53;;;;;;;10.43;8.80;;;28.60;99.90;;;;;;5039901;28;20912;-94
2022/09/07 08:55:30;;;;;;;9.93;8.93;;;28.30;99.90;;;;;;5039935;28;20536;-94
2022/09/07 08:58:34;;;;;;;11.90;9.93;;;28.00;99.90;;;;;;5031975;28;20806;-89
2022/09/07 09:01:00;;;;;;;10.50;9.30;;;27.80;99.90;;;;;;5045519;28;20458;-95
2022/09/07 09:03:28;;;;;;;11.17;8.97;;;27.50;99.90;;;;;;5039308;28;20435;-90
2022/09/07 09:06:19;;;;;;;10.90;8.67;;;27.40;99.90;;;;;;5068935;28;20212;-89
2022/09/07 09:09:16;;;;;;;10.27;8.50;;;27.30;99.90;;;;;;5035374;28;20471;-90
2022/09/07 09:11:45;;;;;;;10.10;8.47;;;27.20;99.90;;;;;;5046469;28;20421;-94
2022/09/07 09:14:44;;;;;;;11.43;8.90;;;27.00;99.90;;;;;;5073973;28;20446;-95
2022/09/07 09:17:15;;;;;;;11.27;8.67;;;27.00;99.90;;;;;;5029913;28;20795;-94
2022/09/07 09:19:50;;;;;;;9.40;7.93;;;26.90;99.90;;;;;;5036089;28;20966;-89
2022/09/07 09:22:22;;;;;;;12.43;8.43;;;26.90;99.90;;;;;;5055083;28;20438;-90
2022/09/07 09:24:55;;;;;;;9.60;8.53;;;26.90;99.90;;;;;;5034551;28;20521;-94
2022/09/07 09:27:21;;;;;;;9.13;7.63;;;26.90;99.90;;;;;;5055177;28;20793;-95
2022/09/07 09:29:46;;;;;;;12.17;7.43;;;26.90;99.90;;;;;;5041018;28;20468;-94
2022/09/07 09:32:38;;;;;;;8.90;8.00;;;26.90;99.90;;;;;;5054172;28;20201;-89
2022/09/07 09:35:12;;;;;;;9.23;7.90;;;26.90;99.90;;;;;;5053105;28;20820;-95
2022/09/07 09:37:39;;;;;;;9.40;7.20;;;27.00;99.90;;;;;;5035010;28;20525;-95
2022/09/07 09:40:16;;;;;;;8.33;7.53;;;27.00;99.90;;;;;;5040233;28;20524;-95
2022/09/07 09:42:43;;;;;;;9.40;8.50;;;27.00;99.90;;;;;;5050633;28;20415;-94
2022/09/07 09:45:20;;;;;;;9.53;6.90;;;27.00;99.90;;;;;;5059440;28;20517;-89
2022/09/07 09:47:49;;;;;;;8.13;7.20;;;27.00;99.90;;;;;;5057129;28;20433;-94
2022/09/07 09:50:28;;;;;;;7.63;6.83;;;27.10;99.90;;;;;;5054685;28;20861;-89
2022/09/07 09:52:54;;;;;;;8.53;7.57;;;27.10;99.90;;;;;;5036245;28;20454;-94
2022/09/07 09:55:31;;;;;;;9.13;7.47;;;27.20;99.90;;;;;;5068546;28;20460;-95
2022/09/07 09:58:00;;;;;;;9.23;8.27;;;27.20;99.90;;;;;;5057374;28;20648;-94
2022/09/07 10:00:29;;;;;;;7.67;6.93;;;27.30;99.90;;;;;;5036750;28;20975;-90
2022/09/07 10:03:05;;;;;;;9.10;6.90;;;27.30;99.90;;;;;;5055188;28;20424;-89
2022/09/07 10:05:39;;;;;;;7.63;6.93;;;27.40;99.90;;;;;;5035024;28;20481;-89
2022/09/07 10:08:21;;;;;;;7.10;6.13;;;27.30;99.90;;;;;;5036692;28;20719;-90
2022/09/07 10:10:50;;;;;;;8.43;7.00;;;27.30;99.90;;;;;;5034844;28;20455;-89
2022/09/07 10:13:22;;;;;;;7.27;6.57;;;27.40;99.90;;;;;;5046666;28;20447;-96
2022/09/07 10:15:54;;;;;;;8.10;7.03;;;27.40;99.90;;;;;;5039376;28;20434;-95
2022/09/07 10:18:26;;;;;;;7.73;6.93;;;27.40;99.90;;;;;;5038166;28;20482;-95
2022/09/07 10:20:52;;;;;;;7.03;6.33;;;27.40;99.90;;;;;;5041692;28;20851;-94
2022/09/07 10:23:21;;;;;;;10.70;6.70;;;27.50;99.90;;;;;;5033534;28;20669;-90
2022/09/07 10:25:46;;;;;;;7.57;6.70;;;27.50;99.90;;;;;;5053530;28;20823;-90
2022/09/07 10:28:17;;;;;;;7.10;6.37;;;27.50;99.90;;;;;;5045068;28;20535;-89
2022/09/07 10:31:25;;;;;;;12.50;6.37;;;27.60;99.90;;;;;;5050725;28;20221;-91
2022/09/07 10:34:12;;;;;;;7.80;7.10;;;27.60;99.90;;;;;;5023351;28;20449;-89
2022/09/07 10:36:51;;;;;;;9.33;7.80;;;27.70;99.90;;;;;;5042547;28;20948;-89
2022/09/07 10:39:27;;;;;;;8.90;6.20;;;27.70;99.90;;;;;;5043199;28;20867;-89
2022/09/07 10:41:58;;;;;;;7.37;6.67;;;27.70;99.90;;;;;;5037524;28;20429;-95
2022/09/07 10:44:29;;;;;;;7.07;6.40;;;27.80;99.90;;;;;;5055584;28;20452;-94
2022/09/07 10:47:22;;;;;;;6.90;6.07;;;27.80;99.90;;;;;;5037489;28;21053;-90
2022/09/07 10:50:07;;;;;;;8.10;6.60;;;27.80;99.90;;;;;;5035672;28;20453;-95
2022/09/07 10:52:46;;;;;;;6.63;5.93;;;27.80;99.90;;;;;;5055481;28;20425;-89
2022/09/07 10:55:26;;;;;;;6.73;6.00;;;27.90;99.90;;;;;;5034170;28;20463;-95
2022/09/07 10:57:58;;;;;;;7.97;6.63;;;27.90;99.90;;;;;;5051783;28;20403;-89
2022/09/07 11:00:27;;;;;;;6.37;5.50;;;28.00;99.90;;;;;;5055610;28;20440;-90
2022/09/07 11:03:11;;;;;;;6.80;5.87;;;27.90;99.90;;;;;;5039450;28;20433;-90
2022/09/07 11:06:04;;;;;;;5.80;5.30;;;28.00;99.90;;;;;;5044949;28;20458;-90
2022/09/07 11:09:01;;;;;;;6.13;5.43;;;28.00;99.90;;;;;;5041263;28;20472;-90
2022/09/07 11:11:41;;;;;;;8.10;6.10;;;28.10;99.30;;;;;;5055124;28;20435;-89
2022/09/07 11:14:13;;;;;;;5.73;5.23;;;28.10;98.90;;;;;;5054422;28;20865;-89
2022/09/07 11:17:03;;;;;;;6.33;5.57;;;28.20;97.70;;;;;;5051526;28;20467;-95
2022/09/07 11:19:45;;;;;;;5.40;4.90;;;28.20;98.40;;;;;;5050078;28;20529;-90
2022/09/07 11:22:28;;;;;;;7.63;6.10;;;28.20;98.70;;;;;;5037571;28;20416;-95
2022/09/07 11:25:19;;;;;;;6.20;5.60;;;28.20;99.50;;;;;;5055705;28;21049;-94
2022/09/07 11:27:57;;;;;;;5.60;5.10;;;28.30;99.70;;;;;;5036651;28;20448;-90
2022/09/07 11:30:30;;;;;;;5.90;5.40;;;28.30;98.50;;;;;;5038249;28;20540;-90
2022/09/07 11:33:18;;;;;;;5.33;4.93;;;28.30;98.00;;;;;;5038660;28;20925;-95
2022/09/07 11:35:47;;;;;;;5.33;4.80;;;28.30;97.90;;;;;;5035429;28;20789;-95
2022/09/07 11:38:40;;;;;;;6.27;5.60;;;28.30;96.70;;;;;;5039041;28;20434;-94
2022/09/07 11:41:22;;;;;;;6.20;5.60;;;28.30;97.40;;;;;;5043961;28;20821;-92
2022/09/07 11:44:01;;;;;;;5.93;5.33;;;28.40;97.70;;;;;;5059059;28;20503;-90
2022/09/07 11:46:43;;;;;;;6.27;5.50;;;28.30;97.60;;;;;;5034614;28;20468;-95
2022/09/07 11:49:22;;;;;;;6.83;6.27;;;28.40;97.50;;;;;;5041933;28;20456;-89
2022/09/07 11:51:59;;;;;;;6.20;5.70;;;28.40;98.50;;;;;;5039064;28;20437;-90
2022/09/07 11:54:49;;;;;;;6.83;5.90;;;28.50;98.60;;;;;;5055233;28;20446;-89
2022/09/07 11:57:15;;;;;;;5.70;5.23;;;28.50;98.60;;;;;;5035291;28;20440;-89
2022/09/07 11:59:52;;;;;;;5.10;4.63;;;28.50;98.80;;;;;;5035659;28;20520;-89
2022/09/07 12:03:00;;;;;;;5.97;5.47;;;28.50;98.30;;;;;;5033204;28;20193;-95
2022/09/07 12:05:35;;;;;;;6.40;5.27;;;28.60;97.00;;;;;;5049187;28;20472;-95
2022/09/07 12:08:25;;;;;;;6.67;6.07;;;28.60;96.80;;;;;;5031097;28;20735;-90
2022/09/07 12:11:01;;;;;;;6.47;5.87;;;28.60;96.60;;;;;;5016470;28;20522;-89
2022/09/07 12:13:29;;;;;;;7.00;5.47;;;28.60;96.90;;;;;;5030078;28;20438;-89
2022/09/07 12:16:10;;;;;;;6.27;5.67;;;28.60;97.10;;;;;;5030397;28;21031;-90
2022/09/07 12:18:58;;;;;;;7.87;5.60;;;28.70;96.80;;;;;;5030670;28;20469;-89
2022/09/07 12:21:40;;;;;;;5.80;5.20;;;28.70;97.40;;;;;;5034040;28;20450;-95
2022/09/07 12:24:44;;;;;;;8.43;6.00;;;28.60;96.60;;;;;;5034051;28;20435;-94
2022/09/07 12:27:19;;;;;;;5.40;4.80;;;28.60;96.00;;;;;;5035720;28;20464;-89
2022/09/07 12:30:11;;;;;;;7.70;6.37;;;28.70;96.20;;;;;;5037976;28;20473;-90
2022/09/07 12:32:46;;;;;;;6.27;5.63;;;28.70;95.80;;;;;;4993097;28;20525;-95
2022/09/07 12:35:32;;;;;;;5.83;5.33;;;28.70;95.50;;;;;;5035441;28;20468;-94
2022/09/07 12:38:00;;;;;;;5.10;4.70;;;28.70;96.30;;;;;;5030185;28;20438;-89
2022/09/07 12:40:26;;;;;;;6.60;5.80;;;28.70;96.70;;;;;;5038145;28;20438;-95
2022/09/07 12:43:13;;;;;;;6.00;5.37;;;28.70;96.20;;;;;;5027094;28;20425;-94
2022/09/07 12:45:39;;;;;;;5.90;5.30;;;28.70;95.30;;;;;;5028790;28;20222;-95
2022/09/07 12:48:14;;;;;;;8.20;5.23;;;28.70;96.20;;;;;;5051245;28;20431;-90
2022/09/07 12:51:16;;;;;;;7.53;5.30;;;28.70;95.60;;;;;;5050031;28;20573;-89
2022/09/07 12:54:00;;;;;;;6.40;5.17;;;28.80;94.50;;;;;;5032943;28;20444;-89
2022/09/07 12:56:41;;;;;;;6.10;5.50;;;28.80;94.60;;;;;;5052077;28;20416;-89
2022/09/07 12:59:34;;;;;;;6.00;5.40;;;28.80;94.10;;;;;;5050474;28;21015;-93
2022/09/07 13:02:33;;;;;;;7.70;5.13;;;28.90;94.30;;;;;;5053340;28;20817;-89